sensor_id;sensor_type;location;lat;lon;timestamp;temperature;humidity
16829;DHT22;8531;48.078;11.968;2022-11-14T00:00:32;3.00;99.90
16829;DHT22;8531;48.078;11.968;2022-11-14T00:03:03;3.00;99.90
16829;DHT22;8531;48.078;11.968;2022-11-14T00:05:30;3.00;99.90
16829;DHT22;8531;48.078;11.968;2022-11-14T00:07:55;2.90;99.90
16829;DHT22;8531;48.078;11.968;2022-11-14T00:10:21;2.90;99.90
16829;DHT22;8531;48.078;11.968;2022-11-14T00:12:47;2.90;99.90
16829;DHT22;8531;48.078;11.968;2022-11-14T00:15:13;2.90;99.90
16829;DHT22;8531;48.078;11.968;2022-11-14T00:17:39;2.80;99.90
16829;DHT22;8531;48.078;11.968;2022-11-14T00:20:06;2.70;99.90
16829;DHT22;8531;48.078;11.968;2022-11-14T00:22:32;2.70;99.90
16829;DHT22;8531;48.078;11.968;2022-11-14T00:24:58;2.70;99.90
16829;DHT22;8531;48.078;11.968;2022-11-14T00:27:24;2.50;99.90
16829;DHT22;8531;48.078;11.968;2022-11-14T00:29:50;2.60;99.90
16829;DHT22;8531;48.078;11.968;2022-11-14T00:32:16;2.50;99.90
16829;DHT22;8531;48.078;11.968;2022-11-14T00:34:42;2.50;99.90
16829;DHT22;8531;48.078;11.968;2022-11-14T00:37:07;2.30;99.90
16829;DHT22;8531;48.078;11.968;2022-11-14T00:39:33;2.30;99.90
16829;DHT22;8531;48.078;11.968;2022-11-14T00:41:58;2.40;99.90
16829;DHT22;8531;48.078;11.968;2022-11-14T00:44:24;2.60;99.90
16829;DHT22;8531;48.078;11.968;2022-11-14T00:46:50;2.60;99.90
16829;DHT22;8531;48.078;11.968;2022-11-14T00:49:16;2.60;99.90
16829;DHT22;8531;48.078;11.968;2022-11-14T00:51:41;2.60;99.90
16829;DHT22;8531;48.078;11.968;2022-11-14T00:54:07;2.50;99.90
16829;DHT22;8531;48.078;11.968;2022-11-14T00:56:33;2.60;99.90
16829;DHT22;8531;48.078;11.968;2022-11-14T00:58:58;2.60;99.90
16829;DHT22;8531;48.078;11.968;2022-11-14T01:01:24;2.60;99.90
16829;DHT22;8531;48.078;11.968;2022-11-14T01:03:51;2.60;99.90
16829;DHT22;8531;48.078;11.968;2022-11-14T01:06:18;2.50;99.90
16829;DHT22;8531;48.078;11.968;2022-11-14T01:08:44;2.50;99.90
16829;DHT22;8531;48.078;11.968;2022-11-14T01:11:12;2.40;99.90
16829;DHT22;8531;48.078;11.968;2022-11-14T01:13:38;2.30;99.90
16829;DHT22;8531;48.078;11.968;2022-11-14T01:16:04;2.30;99.90
16829;DHT22;8531;48.078;11.968;2022-11-14T01:18:30;2.30;99.90
16829;DHT22;8531;48.078;11.968;2022-11-14T01:20:56;2.40;99.90
16829;DHT22;8531;48.078;11.968;2022-11-14T01:23:22;2.40;99.90
16829;DHT22;8531;48.078;11.968;2022-11-14T01:25:47;2.40;99.90
16829;DHT22;8531;48.078;11.968;2022-11-14T01:28:16;2.40;99.90
16829;DHT22;8531;48.078;11.968;2022-11-14T01:30:42;2.50;99.90
16829;DHT22;8531;48.078;11.968;2022-11-14T01:33:08;2.30;99.90
16829;DHT22;8531;48.078;11.968;2022-11-14T01:35:35;2.30;99.90
16829;DHT22;8531;48.078;11.968;2022-11-14T01:38:02;2.30;99.90
16829;DHT22;8531;48.078;11.968;2022-11-14T01:40:28;2.30;99.90
16829;DHT22;8531;48.078;11.968;2022-11-14T01:43:23;2.40;99.90
16829;DHT22;8531;48.078;11.968;2022-11-14T01:51:19;2.20;99.90
16829;DHT22;8531;48.078;11.968;2022-11-14T01:53:46;2.20;99.90
16829;DHT22;8531;48.078;11.968;2022-11-14T01:56:16;2.30;99.90
16829;DHT22;8531;48.078;11.968;2022-11-14T01:58:46;2.40;99.90
16829;DHT22;8531;48.078;11.968;2022-11-14T02:01:13;2.40;99.90
16829;DHT22;8531;48.078;11.968;2022-11-14T02:03:41;2.40;99.90
16829;DHT22;8531;48.078;11.968;2022-11-14T02:06:10;2.50;99.90
16829;DHT22;8531;48.078;11.968;2022-11-14T02:08:38;2.60;99.90
16829;DHT22;8531;48.078;11.968;2022-11-14T02:11:04;2.50;99.90
16829;DHT22;8531;48.078;11.968;2022-11-14T02:13:30;2.50;99.90
16829;DHT22;8531;48.078;11.968;2022-11-14T02:15:56;2.50;99.90
16829;DHT22;8531;48.078;11.968;2022-11-14T02:18:22;2.40;99.90
16829;DHT22;8531;48.078;11.968;2022-11-14T02:20:47;2.40;99.90
16829;DHT22;8531;48.078;11.968;2022-11-14T02:23:13;2.30;99.90
16829;DHT22;8531;48.078;11.968;2022-11-14T02:25:39;2.30;99.90
16829;DHT22;8531;48.078;11.968;2022-11-14T02:28:08;2.20;99.90
16829;DHT22;8531;48.078;11.968;2022-11-14T02:30:34;2.30;99.90
16829;DHT22;8531;48.078;11.968;2022-11-14T02:33:00;2.30;99.90
16829;DHT22;8531;48.078;11.968;2022-11-14T02:35:26;2.30;99.90
16829;DHT22;8531;48.078;11.968;2022-11-14T02:37:52;2.30;99.90
16829;DHT22;8531;48.078;11.968;2022-11-14T02:40:17;2.30;99.90
16829;DHT22;8531;48.078;11.968;2022-11-14T02:42:43;2.40;99.90
16829;DHT22;8531;48.078;11.968;2022-11-14T02:45:09;2.40;99.90
16829;DHT22;8531;48.078;11.968;2022-11-14T02:47:35;2.40;99.90
16829;DHT22;8531;48.078;11.968;2022-11-14T02:50:01;2.40;99.90
16829;DHT22;8531;48.078;11.968;2022-11-14T02:52:27;2.40;99.90
16829;DHT22;8531;48.078;11.968;2022-11-14T02:54:52;2.40;99.90
16829;DHT22;8531;48.078;11.968;2022-11-14T02:57:18;2.50;99.90
16829;DHT22;8531;48.078;11.968;2022-11-14T02:59:44;2.40;99.90
16829;DHT22;8531;48.078;11.968;2022-11-14T03:02:09;2.40;99.90
16829;DHT22;8531;48.078;11.968;2022-11-14T03:04:35;2.40;99.90
16829;DHT22;8531;48.078;11.968;2022-11-14T03:07:00;2.40;99.90
16829;DHT22;8531;48.078;11.968;2022-11-14T03:09:26;2.40;99.90
16829;DHT22;8531;48.078;11.968;2022-11-14T03:11:52;2.30;99.90
16829;DHT22;8531;48.078;11.968;2022-11-14T03:14:18;2.30;99.90
16829;DHT22;8531;48.078;11.968;2022-11-14T03:16:43;2.40;99.90
16829;DHT22;8531;48.078;11.968;2022-11-14T03:19:09;2.40;99.90
16829;DHT22;8531;48.078;11.968;2022-11-14T03:21:35;2.50;99.90
16829;DHT22;8531;48.078;11.968;2022-11-14T03:24:00;2.50;99.90
16829;DHT22;8531;48.078;11.968;2022-11-14T03:26:26;2.50;99.90
16829;DHT22;8531;48.078;11.968;2022-11-14T03:28:52;2.50;99.90
16829;DHT22;8531;48.078;11.968;2022-11-14T03:31:19;2.50;99.90
16829;DHT22;8531;48.078;11.968;2022-11-14T03:33:45;2.60;99.90
16829;DHT22;8531;48.078;11.968;2022-11-14T03:36:11;2.50;99.90
16829;DHT22;8531;48.078;11.968;2022-11-14T03:38:36;2.40;99.90
16829;DHT22;8531;48.078;11.968;2022-11-14T03:41:02;2.30;99.90
16829;DHT22;8531;48.078;11.968;2022-11-14T03:43:32;2.40;99.90
16829;DHT22;8531;48.078;11.968;2022-11-14T03:45:59;2.40;99.90
16829;DHT22;8531;48.078;11.968;2022-11-14T03:48:26;2.30;99.90
16829;DHT22;8531;48.078;11.968;2022-11-14T03:50:52;2.30;99.90
16829;DHT22;8531;48.078;11.968;2022-11-14T03:53:18;2.40;99.90
16829;DHT22;8531;48.078;11.968;2022-11-14T03:55:43;2.30;99.90
16829;DHT22;8531;48.078;11.968;2022-11-14T03:58:09;2.30;99.90
16829;DHT22;8531;48.078;11.968;2022-11-14T04:00:35;2.30;99.90
16829;DHT22;8531;48.078;11.968;2022-11-14T04:03:01;2.30;99.90
16829;DHT22;8531;48.078;11.968;2022-11-14T04:05:27;2.30;99.90
16829;DHT22;8531;48.078;11.968;2022-11-14T04:07:54;2.30;99.90
16829;DHT22;8531;48.078;11.968;2022-11-14T04:10:19;2.30;99.90
16829;DHT22;8531;48.078;11.968;2022-11-14T04:12:49;2.40;99.90
16829;DHT22;8531;48.078;11.968;2022-11-14T04:15:16;2.40;99.90
16829;DHT22;8531;48.078;11.968;2022-11-14T04:17:42;2.40;99.90
16829;DHT22;8531;48.078;11.968;2022-11-14T04:20:09;2.30;99.90
16829;DHT22;8531;48.078;11.968;2022-11-14T04:22:35;2.40;99.90
16829;DHT22;8531;48.078;11.968;2022-11-14T04:25:00;2.30;99.90
16829;DHT22;8531;48.078;11.968;2022-11-14T04:27:26;2.40;99.90
16829;DHT22;8531;48.078;11.968;2022-11-14T04:29:51;2.40;99.90
16829;DHT22;8531;48.078;11.968;2022-11-14T04:32:17;2.30;99.90
16829;DHT22;8531;48.078;11.968;2022-11-14T04:34:43;2.40;99.90
16829;DHT22;8531;48.078;11.968;2022-11-14T04:37:09;2.30;99.90
16829;DHT22;8531;48.078;11.968;2022-11-14T04:39:35;2.30;99.90
16829;DHT22;8531;48.078;11.968;2022-11-14T04:42:00;2.30;99.90
16829;DHT22;8531;48.078;11.968;2022-11-14T04:44:26;2.30;99.90
16829;DHT22;8531;48.078;11.968;2022-11-14T04:46:52;2.30;99.90
16829;DHT22;8531;48.078;11.968;2022-11-14T04:49:17;2.30;99.90
16829;DHT22;8531;48.078;11.968;2022-11-14T04:51:43;2.30;99.90
16829;DHT22;8531;48.078;11.968;2022-11-14T04:54:09;2.30;99.90
16829;DHT22;8531;48.078;11.968;2022-11-14T04:56:34;2.30;99.90
16829;DHT22;8531;48.078;11.968;2022-11-14T04:59:00;2.30;99.90
16829;DHT22;8531;48.078;11.968;2022-11-14T05:01:26;2.40;99.90
16829;DHT22;8531;48.078;11.968;2022-11-14T05:03:52;2.40;99.90
16829;DHT22;8531;48.078;11.968;2022-11-14T05:06:17;2.40;99.90
16829;DHT22;8531;48.078;11.968;2022-11-14T05:08:43;2.40;99.90
16829;DHT22;8531;48.078;11.968;2022-11-14T05:11:13;2.50;99.90
16829;DHT22;8531;48.078;11.968;2022-11-14T05:13:39;2.40;99.90
16829;DHT22;8531;48.078;11.968;2022-11-14T05:16:05;2.30;99.90
16829;DHT22;8531;48.078;11.968;2022-11-14T05:18:31;2.30;99.90
16829;DHT22;8531;48.078;11.968;2022-11-14T05:20:58;2.30;99.90
16829;DHT22;8531;48.078;11.968;2022-11-14T05:23:24;2.30;99.90
16829;DHT22;8531;48.078;11.968;2022-11-14T05:26:04;2.40;99.90
16829;DHT22;8531;48.078;11.968;2022-11-14T05:28:30;2.40;99.90
16829;DHT22;8531;48.078;11.968;2022-11-14T05:31:07;2.40;99.90
16829;DHT22;8531;48.078;11.968;2022-11-14T05:33:34;2.50;99.90
16829;DHT22;8531;48.078;11.968;2022-11-14T05:36:03;2.50;99.90
16829;DHT22;8531;48.078;11.968;2022-11-14T05:38:29;2.50;99.90
16829;DHT22;8531;48.078;11.968;2022-11-14T05:40:55;2.50;99.90
16829;DHT22;8531;48.078;11.968;2022-11-14T05:43:20;2.50;99.90
16829;DHT22;8531;48.078;11.968;2022-11-14T05:45:46;2.50;99.90
16829;DHT22;8531;48.078;11.968;2022-11-14T05:48:12;2.50;99.90
16829;DHT22;8531;48.078;11.968;2022-11-14T05:50:37;2.50;99.90
16829;DHT22;8531;48.078;11.968;2022-11-14T05:53:03;2.50;99.90
16829;DHT22;8531;48.078;11.968;2022-11-14T05:55:29;2.60;99.90
16829;DHT22;8531;48.078;11.968;2022-11-14T05:57:57;2.60;99.90
16829;DHT22;8531;48.078;11.968;2022-11-14T06:00:23;2.60;99.90
16829;DHT22;8531;48.078;11.968;2022-11-14T06:02:53;2.70;99.90
16829;DHT22;8531;48.078;11.968;2022-11-14T06:05:20;2.70;99.90
16829;DHT22;8531;48.078;11.968;2022-11-14T06:07:46;2.70;99.90
16829;DHT22;8531;48.078;11.968;2022-11-14T06:10:11;2.70;99.90
16829;DHT22;8531;48.078;11.968;2022-11-14T06:12:38;2.90;99.90
16829;DHT22;8531;48.078;11.968;2022-11-14T06:15:04;2.90;99.90
16829;DHT22;8531;48.078;11.968;2022-11-14T06:17:30;3.00;99.90
16829;DHT22;8531;48.078;11.968;2022-11-14T06:19:56;3.10;99.90
16829;DHT22;8531;48.078;11.968;2022-11-14T06:22:22;3.10;99.90
16829;DHT22;8531;48.078;11.968;2022-11-14T06:24:47;3.10;99.90
16829;DHT22;8531;48.078;11.968;2022-11-14T06:27:13;3.00;99.90
16829;DHT22;8531;48.078;11.968;2022-11-14T06:29:39;3.00;99.90
16829;DHT22;8531;48.078;11.968;2022-11-14T06:32:05;3.10;99.90
16829;DHT22;8531;48.078;11.968;2022-11-14T06:34:31;3.20;99.90
16829;DHT22;8531;48.078;11.968;2022-11-14T06:36:56;3.30;99.90
16829;DHT22;8531;48.078;11.968;2022-11-14T06:39:22;3.30;99.90
16829;DHT22;8531;48.078;11.968;2022-11-14T06:41:48;3.30;99.90
16829;DHT22;8531;48.078;11.968;2022-11-14T06:44:13;3.40;99.90
16829;DHT22;8531;48.078;11.968;2022-11-14T06:46:39;3.50;99.90
16829;DHT22;8531;48.078;11.968;2022-11-14T06:49:05;3.50;99.90
16829;DHT22;8531;48.078;11.968;2022-11-14T06:51:31;3.70;99.90
16829;DHT22;8531;48.078;11.968;2022-11-14T06:53:57;3.70;99.90
16829;DHT22;8531;48.078;11.968;2022-11-14T06:56:23;3.70;99.90
16829;DHT22;8531;48.078;11.968;2022-11-14T06:58:49;3.60;99.90
16829;DHT22;8531;48.078;11.968;2022-11-14T07:01:19;3.70;99.90
16829;DHT22;8531;48.078;11.968;2022-11-14T07:03:45;3.70;99.90
16829;DHT22;8531;48.078;11.968;2022-11-14T07:06:13;3.70;99.90
16829;DHT22;8531;48.078;11.968;2022-11-14T07:08:39;3.70;99.90
16829;DHT22;8531;48.078;11.968;2022-11-14T07:11:07;3.70;99.90
16829;DHT22;8531;48.078;11.968;2022-11-14T07:13:34;3.70;99.90
16829;DHT22;8531;48.078;11.968;2022-11-14T07:16:00;3.80;99.90
16829;DHT22;8531;48.078;11.968;2022-11-14T07:18:28;3.90;99.90
16829;DHT22;8531;48.078;11.968;2022-11-14T07:21:02;3.90;99.90
16829;DHT22;8531;48.078;11.968;2022-11-14T07:23:30;3.90;99.90
16829;DHT22;8531;48.078;11.968;2022-11-14T07:26:00;4.00;99.90
16829;DHT22;8531;48.078;11.968;2022-11-14T07:28:26;4.10;99.90
16829;DHT22;8531;48.078;11.968;2022-11-14T07:30:52;4.20;99.90
16829;DHT22;8531;48.078;11.968;2022-11-14T07:33:18;4.30;99.90
16829;DHT22;8531;48.078;11.968;2022-11-14T07:35:43;4.40;99.90
16829;DHT22;8531;48.078;11.968;2022-11-14T07:38:09;4.40;99.90
16829;DHT22;8531;48.078;11.968;2022-11-14T07:40:35;4.40;99.90
16829;DHT22;8531;48.078;11.968;2022-11-14T07:43:01;4.50;99.90
16829;DHT22;8531;48.078;11.968;2022-11-14T07:45:28;4.50;99.90
16829;DHT22;8531;48.078;11.968;2022-11-14T07:47:55;4.60;99.90
16829;DHT22;8531;48.078;11.968;2022-11-14T07:50:21;4.70;99.90
16829;DHT22;8531;48.078;11.968;2022-11-14T07:52:54;4.70;99.90
16829;DHT22;8531;48.078;11.968;2022-11-14T07:55:21;4.90;99.90
16829;DHT22;8531;48.078;11.968;2022-11-14T07:57:47;5.00;99.90
16829;DHT22;8531;48.078;11.968;2022-11-14T08:00:13;5.20;99.90
16829;DHT22;8531;48.078;11.968;2022-11-14T08:02:39;5.40;99.90
16829;DHT22;8531;48.078;11.968;2022-11-14T08:05:05;5.70;99.90
16829;DHT22;8531;48.078;11.968;2022-11-14T08:07:31;5.90;99.90
16829;DHT22;8531;48.078;11.968;2022-11-14T08:09:57;5.80;99.90
16829;DHT22;8531;48.078;11.968;2022-11-14T08:12:22;5.80;99.90
16829;DHT22;8531;48.078;11.968;2022-11-14T08:14:48;5.70;99.90
16829;DHT22;8531;48.078;11.968;2022-11-14T08:17:13;5.60;99.90
16829;DHT22;8531;48.078;11.968;2022-11-14T08:19:39;5.70;99.90
16829;DHT22;8531;48.078;11.968;2022-11-14T08:22:06;5.60;99.90
16829;DHT22;8531;48.078;11.968;2022-11-14T08:24:32;5.60;99.90
16829;DHT22;8531;48.078;11.968;2022-11-14T08:26:58;5.60;99.90
16829;DHT22;8531;48.078;11.968;2022-11-14T08:29:24;5.70;99.90
16829;DHT22;8531;48.078;11.968;2022-11-14T08:31:49;5.70;99.90
16829;DHT22;8531;48.078;11.968;2022-11-14T08:34:15;5.80;99.90
16829;DHT22;8531;48.078;11.968;2022-11-14T08:36:41;5.90;99.90
16829;DHT22;8531;48.078;11.968;2022-11-14T08:39:06;5.90;99.90
16829;DHT22;8531;48.078;11.968;2022-11-14T08:41:32;6.00;99.90
16829;DHT22;8531;48.078;11.968;2022-11-14T08:43:58;6.10;99.90
16829;DHT22;8531;48.078;11.968;2022-11-14T08:46:23;6.20;99.90
16829;DHT22;8531;48.078;11.968;2022-11-14T08:48:49;6.30;99.90
16829;DHT22;8531;48.078;11.968;2022-11-14T08:51:15;6.40;99.90
16829;DHT22;8531;48.078;11.968;2022-11-14T08:53:40;6.40;99.90
16829;DHT22;8531;48.078;11.968;2022-11-14T08:56:08;6.50;99.90
16829;DHT22;8531;48.078;11.968;2022-11-14T08:58:34;6.60;99.90
16829;DHT22;8531;48.078;11.968;2022-11-14T09:01:02;6.80;99.90
16829;DHT22;8531;48.078;11.968;2022-11-14T09:03:28;7.00;99.90
16829;DHT22;8531;48.078;11.968;2022-11-14T09:05:54;7.10;99.90
16829;DHT22;8531;48.078;11.968;2022-11-14T09:08:19;7.10;99.90
16829;DHT22;8531;48.078;11.968;2022-11-14T09:10:45;7.20;99.90
16829;DHT22;8531;48.078;11.968;2022-11-14T09:13:11;7.40;99.90
16829;DHT22;8531;48.078;11.968;2022-11-14T09:15:37;7.50;99.90
16829;DHT22;8531;48.078;11.968;2022-11-14T09:18:02;7.60;99.90
16829;DHT22;8531;48.078;11.968;2022-11-14T09:20:28;7.60;99.90
16829;DHT22;8531;48.078;11.968;2022-11-14T09:22:57;7.60;99.90
16829;DHT22;8531;48.078;11.968;2022-11-14T09:25:23;7.70;99.90
16829;DHT22;8531;48.078;11.968;2022-11-14T09:27:51;7.70;99.90
16829;DHT22;8531;48.078;11.968;2022-11-14T09:30:17;7.80;99.90
16829;DHT22;8531;48.078;11.968;2022-11-14T09:32:43;7.80;99.90
16829;DHT22;8531;48.078;11.968;2022-11-14T09:35:17;7.80;99.90
16829;DHT22;8531;48.078;11.968;2022-11-14T09:37:43;7.90;99.90
16829;DHT22;8531;48.078;11.968;2022-11-14T09:40:11;7.90;99.90
16829;DHT22;8531;48.078;11.968;2022-11-14T09:45:23;7.90;99.90
16829;DHT22;8531;48.078;11.968;2022-11-14T09:47:54;7.90;99.90
16829;DHT22;8531;48.078;11.968;2022-11-14T09:50:33;8.00;99.90
16829;DHT22;8531;48.078;11.968;2022-11-14T09:53:08;8.10;99.90
16829;DHT22;8531;48.078;11.968;2022-11-14T09:55:34;8.20;99.90
16829;DHT22;8531;48.078;11.968;2022-11-14T09:58:01;8.30;99.90
16829;DHT22;8531;48.078;11.968;2022-11-14T10:00:39;8.40;99.90
16829;DHT22;8531;48.078;11.968;2022-11-14T10:03:15;8.40;99.90
16829;DHT22;8531;48.078;11.968;2022-11-14T10:19:17;9.30;99.90
16829;DHT22;8531;48.078;11.968;2022-11-14T10:27:32;9.70;99.90
16829;DHT22;8531;48.078;11.968;2022-11-14T10:33:15;9.90;99.90
16829;DHT22;8531;48.078;11.968;2022-11-14T10:40:54;10.20;99.90
16829;DHT22;8531;48.078;11.968;2022-11-14T10:43:24;10.40;99.90
16829;DHT22;8531;48.078;11.968;2022-11-14T10:48:56;10.60;99.90
16829;DHT22;8531;48.078;11.968;2022-11-14T10:51:37;10.60;99.90
16829;DHT22;8531;48.078;11.968;2022-11-14T10:54:13;10.60;99.90
16829;DHT22;8531;48.078;11.968;2022-11-14T10:56:46;10.80;99.90
16829;DHT22;8531;48.078;11.968;2022-11-14T10:59:12;11.10;99.90
16829;DHT22;8531;48.078;11.968;2022-11-14T11:01:40;11.30;99.90
16829;DHT22;8531;48.078;11.968;2022-11-14T11:04:28;11.70;99.90
16829;DHT22;8531;48.078;11.968;2022-11-14T11:06:56;12.00;99.90
16829;DHT22;8531;48.078;11.968;2022-11-14T11:09:27;12.00;99.90
16829;DHT22;8531;48.078;11.968;2022-11-14T11:12:40;12.10;99.90
16829;DHT22;8531;48.078;11.968;2022-11-14T11:15:23;12.20;99.90
16829;DHT22;8531;48.078;11.968;2022-11-14T11:18:02;12.20;99.90
16829;DHT22;8531;48.078;11.968;2022-11-14T11:20:35;12.20;99.90
16829;DHT22;8531;48.078;11.968;2022-11-14T11:25:38;12.10;99.90
16829;DHT22;8531;48.078;11.968;2022-11-14T11:30:36;12.00;99.90
16829;DHT22;8531;48.078;11.968;2022-11-14T11:35:48;12.10;99.90
16829;DHT22;8531;48.078;11.968;2022-11-14T11:38:15;12.10;99.90
16829;DHT22;8531;48.078;11.968;2022-11-14T11:40:49;12.20;99.90
16829;DHT22;8531;48.078;11.968;2022-11-14T11:46:07;12.10;99.90
16829;DHT22;8531;48.078;11.968;2022-11-14T11:48:38;12.30;99.90
16829;DHT22;8531;48.078;11.968;2022-11-14T11:51:09;12.40;99.90
16829;DHT22;8531;48.078;11.968;2022-11-14T11:53:42;12.40;99.90
16829;DHT22;8531;48.078;11.968;2022-11-14T11:56:12;12.30;99.90
16829;DHT22;8531;48.078;11.968;2022-11-14T11:58:46;12.20;99.90
16829;DHT22;8531;48.078;11.968;2022-11-14T12:01:13;12.30;99.90
16829;DHT22;8531;48.078;11.968;2022-11-14T12:03:46;12.20;99.90
16829;DHT22;8531;48.078;11.968;2022-11-14T12:06:19;12.20;99.90
16829;DHT22;8531;48.078;11.968;2022-11-14T12:09:11;12.00;99.90
16829;DHT22;8531;48.078;11.968;2022-11-14T12:11:43;11.90;99.90
16829;DHT22;8531;48.078;11.968;2022-11-14T12:20:32;11.70;99.90
16829;DHT22;8531;48.078;11.968;2022-11-14T12:23:18;11.60;99.90
16829;DHT22;8531;48.078;11.968;2022-11-14T12:31:34;11.30;99.90
16829;DHT22;8531;48.078;11.968;2022-11-14T12:34:04;11.20;99.90
16829;DHT22;8531;48.078;11.968;2022-11-14T12:36:33;11.10;99.90
16829;DHT22;8531;48.078;11.968;2022-11-14T12:39:00;11.00;99.90
16829;DHT22;8531;48.078;11.968;2022-11-14T12:41:35;10.80;99.90
16829;DHT22;8531;48.078;11.968;2022-11-14T12:44:31;10.70;99.90
16829;DHT22;8531;48.078;11.968;2022-11-14T12:49:57;10.70;99.90
16829;DHT22;8531;48.078;11.968;2022-11-14T12:58:07;10.80;99.90
16829;DHT22;8531;48.078;11.968;2022-11-14T13:00:56;10.70;99.90
16829;DHT22;8531;48.078;11.968;2022-11-14T13:06:27;10.70;99.90
16829;DHT22;8531;48.078;11.968;2022-11-14T13:14:26;10.70;99.90
16829;DHT22;8531;48.078;11.968;2022-11-14T13:20:31;10.70;99.90
16829;DHT22;8531;48.078;11.968;2022-11-14T13:28:52;10.70;99.90
16829;DHT22;8531;48.078;11.968;2022-11-14T13:31:43;10.70;99.90
16829;DHT22;8531;48.078;11.968;2022-11-14T13:45:30;10.80;99.90
16829;DHT22;8531;48.078;11.968;2022-11-14T13:51:00;10.90;99.90
16829;DHT22;8531;48.078;11.968;2022-11-14T13:53:29;10.90;99.90
16829;DHT22;8531;48.078;11.968;2022-11-14T13:55:59;10.90;99.90
16829;DHT22;8531;48.078;11.968;2022-11-14T14:04:22;11.00;99.90
16829;DHT22;8531;48.078;11.968;2022-11-14T14:20:38;10.90;99.90
16829;DHT22;8531;48.078;11.968;2022-11-14T14:23:28;10.80;99.90
16829;DHT22;8531;48.078;11.968;2022-11-14T14:28:51;10.80;99.90
16829;DHT22;8531;48.078;11.968;2022-11-14T14:31:21;10.70;99.90
16829;DHT22;8531;48.078;11.968;2022-11-14T14:33:51;10.70;99.90
16829;DHT22;8531;48.078;11.968;2022-11-14T14:36:23;10.60;99.90
16829;DHT22;8531;48.078;11.968;2022-11-14T14:38:50;10.60;99.90
16829;DHT22;8531;48.078;11.968;2022-11-14T14:41:30;10.60;99.90
16829;DHT22;8531;48.078;11.968;2022-11-14T14:43:56;10.60;99.90
16829;DHT22;8531;48.078;11.968;2022-11-14T14:46:31;10.60;99.90
16829;DHT22;8531;48.078;11.968;2022-11-14T14:49:00;10.60;99.90
16829;DHT22;8531;48.078;11.968;2022-11-14T14:51:35;10.50;99.90
16829;DHT22;8531;48.078;11.968;2022-11-14T14:54:02;10.50;99.90
16829;DHT22;8531;48.078;11.968;2022-11-14T14:56:28;10.60;99.90
16829;DHT22;8531;48.078;11.968;2022-11-14T14:58:54;10.50;99.90
16829;DHT22;8531;48.078;11.968;2022-11-14T15:01:24;10.40;99.90
16829;DHT22;8531;48.078;11.968;2022-11-14T15:03:56;10.40;99.90
16829;DHT22;8531;48.078;11.968;2022-11-14T15:09:16;10.20;99.90
16829;DHT22;8531;48.078;11.968;2022-11-14T15:11:44;10.10;99.90
16829;DHT22;8531;48.078;11.968;2022-11-14T15:14:16;10.10;99.90
16829;DHT22;8531;48.078;11.968;2022-11-14T15:16:44;10.10;99.90
16829;DHT22;8531;48.078;11.968;2022-11-14T15:19:13;10.00;99.90
16829;DHT22;8531;48.078;11.968;2022-11-14T15:21:40;10.00;99.90
16829;DHT22;8531;48.078;11.968;2022-11-14T15:24:21;10.00;99.90
16829;DHT22;8531;48.078;11.968;2022-11-14T15:26:49;9.90;99.90
16829;DHT22;8531;48.078;11.968;2022-11-14T15:29:23;9.90;99.90
16829;DHT22;8531;48.078;11.968;2022-11-14T15:31:53;9.90;99.90
16829;DHT22;8531;48.078;11.968;2022-11-14T15:34:31;9.90;99.90
16829;DHT22;8531;48.078;11.968;2022-11-14T15:39:38;9.80;99.90
16829;DHT22;8531;48.078;11.968;2022-11-14T15:44:48;9.70;99.90
16829;DHT22;8531;48.078;11.968;2022-11-14T15:47:28;9.60;99.90
16829;DHT22;8531;48.078;11.968;2022-11-14T15:50:43;9.50;99.90
16829;DHT22;8531;48.078;11.968;2022-11-14T15:53:16;9.30;99.90
16829;DHT22;8531;48.078;11.968;2022-11-14T15:55:46;9.30;99.90
16829;DHT22;8531;48.078;11.968;2022-11-14T15:58:12;9.20;99.90
16829;DHT22;8531;48.078;11.968;2022-11-14T16:00:43;9.10;99.90
16829;DHT22;8531;48.078;11.968;2022-11-14T16:03:13;9.10;99.90
16829;DHT22;8531;48.078;11.968;2022-11-14T16:05:39;9.10;99.90
16829;DHT22;8531;48.078;11.968;2022-11-14T16:08:05;9.10;99.90
16829;DHT22;8531;48.078;11.968;2022-11-14T16:10:31;9.00;99.90
16829;DHT22;8531;48.078;11.968;2022-11-14T16:12:57;8.90;99.90
16829;DHT22;8531;48.078;11.968;2022-11-14T16:15:22;8.90;99.90
16829;DHT22;8531;48.078;11.968;2022-11-14T16:17:49;8.80;99.90
16829;DHT22;8531;48.078;11.968;2022-11-14T16:20:16;8.80;99.90
16829;DHT22;8531;48.078;11.968;2022-11-14T16:22:43;8.80;99.90
16829;DHT22;8531;48.078;11.968;2022-11-14T16:25:16;8.70;99.90
16829;DHT22;8531;48.078;11.968;2022-11-14T16:27:43;8.70;99.90
16829;DHT22;8531;48.078;11.968;2022-11-14T16:30:13;8.70;99.90
16829;DHT22;8531;48.078;11.968;2022-11-14T16:32:40;8.70;99.90
16829;DHT22;8531;48.078;11.968;2022-11-14T16:35:12;8.70;99.90
16829;DHT22;8531;48.078;11.968;2022-11-14T16:37:38;8.70;99.90
16829;DHT22;8531;48.078;11.968;2022-11-14T16:40:04;8.70;99.90
16829;DHT22;8531;48.078;11.968;2022-11-14T16:42:30;8.60;99.90
16829;DHT22;8531;48.078;11.968;2022-11-14T16:44:59;8.60;99.90
16829;DHT22;8531;48.078;11.968;2022-11-14T16:47:26;8.50;99.90
16829;DHT22;8531;48.078;11.968;2022-11-14T16:49:52;8.50;99.90
16829;DHT22;8531;48.078;11.968;2022-11-14T16:52:17;8.40;99.90
16829;DHT22;8531;48.078;11.968;2022-11-14T16:54:44;8.40;99.90
16829;DHT22;8531;48.078;11.968;2022-11-14T16:57:10;8.30;99.90
16829;DHT22;8531;48.078;11.968;2022-11-14T16:59:36;8.20;99.90
16829;DHT22;8531;48.078;11.968;2022-11-14T17:02:02;8.20;99.90
16829;DHT22;8531;48.078;11.968;2022-11-14T17:04:28;8.10;99.90
16829;DHT22;8531;48.078;11.968;2022-11-14T17:06:54;8.10;99.90
16829;DHT22;8531;48.078;11.968;2022-11-14T17:09:19;8.10;99.90
16829;DHT22;8531;48.078;11.968;2022-11-14T17:11:45;8.00;99.90
16829;DHT22;8531;48.078;11.968;2022-11-14T17:14:11;7.90;99.90
16829;DHT22;8531;48.078;11.968;2022-11-14T17:16:37;7.90;99.90
16829;DHT22;8531;48.078;11.968;2022-11-14T17:19:03;7.90;99.90
16829;DHT22;8531;48.078;11.968;2022-11-14T17:21:29;7.90;99.90
16829;DHT22;8531;48.078;11.968;2022-11-14T17:23:57;7.80;99.90
16829;DHT22;8531;48.078;11.968;2022-11-14T17:26:26;7.70;99.90
16829;DHT22;8531;48.078;11.968;2022-11-14T17:28:52;7.60;99.90
16829;DHT22;8531;48.078;11.968;2022-11-14T17:31:18;7.50;99.90
16829;DHT22;8531;48.078;11.968;2022-11-14T17:33:52;7.40;99.90
16829;DHT22;8531;48.078;11.968;2022-11-14T17:36:19;7.40;99.90
16829;DHT22;8531;48.078;11.968;2022-11-14T17:38:45;7.40;99.90
16829;DHT22;8531;48.078;11.968;2022-11-14T17:41:11;7.40;99.90
16829;DHT22;8531;48.078;11.968;2022-11-14T17:43:37;7.40;99.90
16829;DHT22;8531;48.078;11.968;2022-11-14T17:46:03;7.30;99.90
16829;DHT22;8531;48.078;11.968;2022-11-14T17:48:29;7.30;99.90
16829;DHT22;8531;48.078;11.968;2022-11-14T17:50:55;7.30;99.90
16829;DHT22;8531;48.078;11.968;2022-11-14T17:53:21;7.20;99.90
16829;DHT22;8531;48.078;11.968;2022-11-14T17:55:53;7.20;99.90
16829;DHT22;8531;48.078;11.968;2022-11-14T17:58:19;7.20;99.90
16829;DHT22;8531;48.078;11.968;2022-11-14T18:00:45;7.20;99.90